Time,TemperatureF,DewpointF,PressureIn,WindDirection,WindDirectionDegrees,WindSpeedMPH,WindSpeedGustMPH,Humidity,HourlyPrecipIn,Conditions,Clouds,dailyrainin,SoftwareType,DateUTC
2013-01-31 00:05:00,40.9,38.2,30.30,ESE,120,0.0,1.9,90,0.00,,CLR,0.00,VWS V14.01,2013-01-31 08:05:00,
2013-01-31 00:10:00,40.7,38.0,30.29,ESE,120,0.0,1.9,90,0.00,,CLR,0.00,VWS V14.01,2013-01-31 08:10:00,
2013-01-31 00:15:00,40.4,37.7,30.30,ESE,120,0.0,1.9,90,0.00,,CLR,0.00,VWS V14.01,2013-01-31 08:15:00,
2013-01-31 00:20:00,40.3,37.6,30.30,SE,124,1.9,1.9,90,0.00,,CLR,0.00,VWS V14.01,2013-01-31 08:20:00,
2013-01-31 00:25:00,40.1,37.4,30.29,SE,124,0.0,1.9,90,0.00,,CLR,0.00,VWS V14.01,2013-01-31 08:25:00,
2013-01-31 00:30:00,40.0,37.3,30.29,SE,124,0.0,0.0,90,0.00,,CLR,0.00,VWS V14.01,2013-01-31 08:30:00,
2013-01-31 00:35:00,39.9,37.5,30.29,SE,124,1.9,3.8,91,0.00,,CLR,0.00,VWS V14.01,2013-01-31 08:35:00,
2013-01-31 00:40:00,39.9,37.5,30.29,ESE,117,0.0,3.8,91,0.00,,CLR,0.00,VWS V14.01,2013-01-31 08:40:00,
2013-01-31 00:45:00,39.9,37.5,30.29,ESE,119,3.8,3.8,91,0.00,,CLR,0.00,VWS V14.01,2013-01-31 08:45:00,
2013-01-31 00:50:00,39.8,37.4,30.29,ESE,119,0.0,3.8,91,0.00,,CLR,0.00,VWS V14.01,2013-01-31 08:50:00,
2013-01-31 00:55:00,39.7,37.0,30.29,ESE,118,0.0,3.8,90,0.00,,CLR,0.00,VWS V14.01,2013-01-31 08:55:00,
2013-01-31 01:00:00,39.5,36.8,30.29,ESE,115,0.0,0.0,90,0.00,,CLR,0.00,VWS V14.01,2013-01-31 09:00:00,
2013-01-31 01:05:00,39.3,36.6,30.29,ENE,75,1.9,3.8,90,0.00,,,0.00,VWS V14.01,2013-01-31 09:05:00,
2013-01-31 01:10:00,39.3,36.9,30.29,ENE,73,0.0,3.8,91,0.00,,,0.00,VWS V14.01,2013-01-31 09:10:00,
2013-01-31 01:15:00,39.2,36.8,30.29,ENE,58,0.0,3.8,91,0.00,,,0.00,VWS V14.01,2013-01-31 09:15:00,
2013-01-31 01:20:00,39.0,36.3,30.29,ENE,58,0.0,3.8,90,0.00,,,0.00,VWS V14.01,2013-01-31 09:20:00,
2013-01-31 01:25:00,38.8,36.4,30.29,ESE,111,1.9,3.8,91,0.00,,,0.00,VWS V14.01,2013-01-31 09:25:00,
2013-01-31 01:30:00,38.7,36.3,30.29,ESE,113,1.9,1.9,91,0.00,,,0.00,VWS V14.01,2013-01-31 09:30:00,
2013-01-31 01:35:00,38.5,36.1,30.29,ESE,115,0.0,3.8,91,0.00,,,0.00,VWS V14.01,2013-01-31 09:35:00,
2013-01-31 01:40:00,38.7,36.6,30.29,ESE,111,1.9,3.8,92,0.00,,,0.00,VWS V14.01,2013-01-31 09:40:00,
2013-01-31 01:45:00,38.7,36.6,30.30,ESE,106,1.9,3.8,92,0.00,,,0.00,VWS V14.01,2013-01-31 09:45:00,
2013-01-31 01:50:00,38.8,36.7,30.29,SE,126,1.9,3.8,92,0.00,,,0.00,VWS V14.01,2013-01-31 09:50:00,
2013-01-31 01:55:00,38.9,36.8,30.29,ESE,118,1.9,3.8,92,0.00,,,0.00,VWS V14.01,2013-01-31 09:55:00,
2013-01-31 02:00:00,38.9,36.8,30.29,SE,126,1.9,1.9,92,0.00,,,0.00,VWS V14.01,2013-01-31 10:00:00,
2013-01-31 02:05:00,38.9,36.8,30.29,ESE,117,1.9,3.8,92,0.00,,,0.00,VWS V14.01,2013-01-31 10:05:00,
2013-01-31 02:10:00,38.8,36.7,30.29,ESE,113,3.8,3.8,92,0.00,,,0.00,VWS V14.01,2013-01-31 10:10:00,
2013-01-31 02:15:00,38.8,36.4,30.29,ESE,123,1.9,5.7,91,0.00,,,0.00,VWS V14.01,2013-01-31 10:15:00,
2013-01-31 02:26:00,38.6,36.2,30.28,SE,125,1.9,5.7,91,0.00,,,0.00,VWS V14.01,2013-01-31 10:26:00,
2013-01-31 02:31:00,38.6,36.2,30.28,ESE,114,1.9,3.8,91,0.00,,,0.00,VWS V14.01,2013-01-31 10:31:00,
2013-01-31 02:36:00,38.5,36.1,30.28,ESE,121,1.9,3.8,91,0.00,,,0.00,VWS V14.01,2013-01-31 10:36:00,
2013-01-31 02:41:00,38.3,35.9,30.28,SE,135,1.9,3.8,91,0.00,,,0.00,VWS V14.01,2013-01-31 10:41:00,
2013-01-31 02:46:00,38.3,35.9,30.28,SE,129,0.0,3.8,91,0.00,,,0.00,VWS V14.01,2013-01-31 10:46:00,
2013-01-31 02:51:00,38.2,36.1,30.28,SE,125,0.0,3.8,92,0.00,,,0.00,VWS V14.01,2013-01-31 10:51:00,
2013-01-31 02:56:00,38.1,36.0,30.28,ESE,119,0.0,3.8,92,0.00,,,0.00,VWS V14.01,2013-01-31 10:56:00,
2013-01-31 03:01:00,38.0,35.9,30.28,ESE,109,0.0,0.0,92,0.00,,,0.00,VWS V14.01,2013-01-31 11:01:00,
2013-01-31 03:06:00,37.7,35.6,30.28,ESE,109,0.0,0.0,92,0.00,,,0.00,VWS V14.01,2013-01-31 11:06:00,
2013-01-31 03:11:00,37.6,35.5,30.28,ESE,109,0.0,1.9,92,0.00,,,0.00,VWS V14.01,2013-01-31 11:11:00,
2013-01-31 03:16:00,37.1,34.7,30.28,ESE,109,0.0,1.9,91,0.00,,,0.00,VWS V14.01,2013-01-31 11:16:00,
2013-01-31 03:21:00,36.8,34.7,30.28,ESE,109,0.0,1.9,92,0.00,,,0.00,VWS V14.01,2013-01-31 11:21:00,
2013-01-31 03:26:00,36.7,34.6,30.27,ESE,108,0.0,1.9,92,0.00,,,0.00,VWS V14.01,2013-01-31 11:26:00,
2013-01-31 03:31:00,36.7,34.9,30.27,ESE,110,0.0,1.9,93,0.00,,,0.00,VWS V14.01,2013-01-31 11:31:00,
2013-01-31 03:37:00,36.7,34.9,30.28,ESE,110,0.0,0.0,93,0.00,,,0.00,VWS V14.01,2013-01-31 11:37:00,
2013-01-31 03:42:00,36.6,34.8,30.28,ESE,122,0.0,1.9,93,0.00,,,0.00,VWS V14.01,2013-01-31 11:42:00,
2013-01-31 03:47:00,36.6,34.8,30.28,ESE,123,0.0,1.9,93,0.00,,,0.00,VWS V14.01,2013-01-31 11:47:00,
2013-01-31 03:52:00,36.5,34.7,30.28,ESE,123,0.0,1.9,93,0.00,,,0.00,VWS V14.01,2013-01-31 11:52:00,
2013-01-31 03:57:00,36.4,34.6,30.28,ESE,122,0.0,1.9,93,0.00,,,0.00,VWS V14.01,2013-01-31 11:57:00,
2013-01-31 04:02:00,36.2,34.4,30.28,ESE,123,0.0,0.0,93,0.00,,,0.00,VWS V14.01,2013-01-31 12:02:00,
2013-01-31 04:07:00,35.9,34.1,30.28,ESE,122,0.0,0.0,93,0.00,,,0.00,VWS V14.01,2013-01-31 12:07:00,
2013-01-31 04:12:00,35.6,33.8,30.28,ESE,122,0.0,0.0,93,0.00,,,0.00,VWS V14.01,2013-01-31 12:12:00,
2013-01-31 04:17:00,35.5,33.7,30.28,ESE,122,0.0,0.0,93,0.00,,,0.00,VWS V14.01,2013-01-31 12:17:00,
2013-01-31 04:22:00,35.3,33.5,30.28,ESE,123,0.0,0.0,93,0.00,,,0.00,VWS V14.01,2013-01-31 12:22:00,
2013-01-31 04:27:00,35.1,33.3,30.28,ESE,122,0.0,0.0,93,0.00,,,0.00,VWS V14.01,2013-01-31 12:27:00,
2013-01-31 04:32:00,34.7,32.9,30.28,ESE,123,0.0,0.0,93,0.00,,,0.00,VWS V14.01,2013-01-31 12:32:00,
2013-01-31 04:37:00,35.0,33.5,30.28,East,79,1.9,3.8,94,0.00,,,0.00,VWS V14.01,2013-01-31 12:37:00,
2013-01-31 04:42:00,35.3,33.8,30.28,ESE,117,0.0,3.8,94,0.00,,,0.00,VWS V14.01,2013-01-31 12:42:00,
2013-01-31 04:48:00,35.3,33.8,30.28,ESE,113,1.9,3.8,94,0.00,,,0.00,VWS V14.01,2013-01-31 12:48:00,
2013-01-31 04:53:00,35.3,33.8,30.28,ESE,113,0.0,3.8,94,0.00,,,0.00,VWS V14.01,2013-01-31 12:53:00,
2013-01-31 04:58:00,35.3,33.8,30.28,ESE,113,0.0,3.8,94,0.00,,,0.00,VWS V14.01,2013-01-31 12:58:00,
2013-01-31 05:03:00,35.3,33.5,30.28,East,99,1.9,3.8,93,0.00,,,0.00,VWS V14.01,2013-01-31 13:03:00,
2013-01-31 05:08:00,35.2,33.4,30.28,East,81,0.0,3.8,93,0.00,,,0.00,VWS V14.01,2013-01-31 13:08:00,
2013-01-31 05:13:00,35.3,33.8,30.28,ENE,58,1.9,3.8,94,0.00,,,0.00,VWS V14.01,2013-01-31 13:13:00,
2013-01-31 05:18:00,35.4,33.8,30.28,ENE,57,0.0,5.7,94,0.00,,,0.00,VWS V14.01,2013-01-31 13:18:00,
2013-01-31 05:23:00,35.6,34.0,30.28,ENE,65,1.9,5.7,94,0.00,,,0.00,VWS V14.01,2013-01-31 13:23:00,
2013-01-31 05:28:00,35.9,34.3,30.28,NE,44,0.0,5.7,94,0.00,,,0.00,VWS V14.01,2013-01-31 13:28:00,
2013-01-31 05:33:00,36.1,34.5,30.29,NNE,32,0.0,3.8,94,0.00,,,0.00,VWS V14.01,2013-01-31 13:33:00,
2013-01-31 05:38:00,36.1,34.5,30.28,ENE,76,0.0,3.8,94,0.00,,,0.00,VWS V14.01,2013-01-31 13:38:00,
2013-01-31 05:43:00,36.0,34.4,30.29,ENE,77,0.0,3.8,94,0.00,,,0.00,VWS V14.01,2013-01-31 13:43:00,
2013-01-31 05:48:00,36.0,34.4,30.28,ESE,107,0.0,3.8,94,0.00,,,0.00,VWS V14.01,2013-01-31 13:48:00,
2013-01-31 05:53:00,36.2,34.6,30.29,East,86,0.0,3.8,94,0.00,,,0.00,VWS V14.01,2013-01-31 13:53:00,
2013-01-31 05:58:00,36.3,34.7,30.29,ESE,111,0.0,3.8,94,0.00,,,0.00,VWS V14.01,2013-01-31 13:58:00,
2013-01-31 06:03:00,36.5,34.9,30.29,ESE,111,0.0,1.9,94,0.00,,,0.00,VWS V14.01,2013-01-31 14:03:00,
2013-01-31 06:08:00,36.6,35.0,30.29,ESE,111,0.0,1.9,94,0.00,,,0.00,VWS V14.01,2013-01-31 14:08:00,
2013-01-31 06:13:00,36.5,34.7,30.29,ESE,112,1.9,1.9,93,0.00,,,0.00,VWS V14.01,2013-01-31 14:13:00,
2013-01-31 06:18:00,36.2,34.4,30.29,ESE,113,1.9,1.9,93,0.00,,,0.00,VWS V14.01,2013-01-31 14:18:00,
2013-01-31 06:23:00,35.9,34.1,30.29,ESE,113,1.9,3.8,93,0.00,,,0.00,VWS V14.01,2013-01-31 14:23:00,
2013-01-31 06:28:00,35.8,34.0,30.29,ESE,110,1.9,3.8,93,0.00,,,0.00,VWS V14.01,2013-01-31 14:28:00,
2013-01-31 06:33:00,35.6,33.8,30.29,SE,132,1.9,3.8,93,0.00,,,0.00,VWS V14.01,2013-01-31 14:33:00,
2013-01-31 06:38:00,35.6,33.8,30.29,East,99,0.0,3.8,93,0.00,,,0.00,VWS V14.01,2013-01-31 14:38:00,
2013-01-31 06:43:00,35.5,33.7,30.29,ESE,122,0.0,3.8,93,0.00,,,0.00,VWS V14.01,2013-01-31 14:43:00,
2013-01-31 06:49:00,35.5,33.7,30.29,ESE,123,0.0,3.8,93,0.00,,,0.00,VWS V14.01,2013-01-31 14:49:00,
2013-01-31 06:54:00,35.5,33.7,30.30,ENE,61,0.0,3.8,93,0.00,,,0.00,VWS V14.01,2013-01-31 14:54:00,
2013-01-31 06:59:00,35.4,33.6,30.30,ENE,61,0.0,3.8,93,0.00,,,0.00,VWS V14.01,2013-01-31 14:59:00,
2013-01-31 07:04:00,35.7,34.2,30.30,ENE,70,3.8,3.8,94,0.00,,,0.00,VWS V14.01,2013-01-31 15:04:00,
2013-01-31 07:09:00,35.8,34.2,30.30,ENE,65,0.0,3.8,94,0.00,,,0.00,VWS V14.01,2013-01-31 15:09:00,
2013-01-31 07:14:00,35.6,33.8,30.30,ENE,65,0.0,3.8,93,0.00,,,0.00,VWS V14.01,2013-01-31 15:14:00,
2013-01-31 07:19:00,35.3,33.5,30.30,ENE,65,0.0,3.8,93,0.00,,,0.00,VWS V14.01,2013-01-31 15:19:00,
2013-01-31 07:24:00,34.9,33.1,30.30,ENE,65,0.0,3.8,93,0.00,,,0.00,VWS V14.01,2013-01-31 15:24:00,
2013-01-31 07:29:00,34.5,32.7,30.30,ENE,65,0.0,3.8,93,0.00,,,0.00,VWS V14.01,2013-01-31 15:29:00,
2013-01-31 07:34:00,34.0,32.2,30.30,ENE,65,0.0,0.0,93,0.00,,,0.00,VWS V14.01,2013-01-31 15:34:00,
2013-01-31 07:39:00,34.1,32.6,30.30,ENE,65,0.0,0.0,94,0.00,,,0.00,VWS V14.01,2013-01-31 15:39:00,
2013-01-31 07:44:00,34.9,33.6,30.30,ESE,110,1.9,3.8,95,0.00,,,0.00,VWS V14.01,2013-01-31 15:44:00,
2013-01-31 07:49:00,35.7,34.4,30.30,ESE,122,3.8,5.7,95,0.00,,,0.00,VWS V14.01,2013-01-31 15:49:00,
2013-01-31 07:54:00,36.4,35.1,30.30,ESE,109,0.0,5.7,95,0.00,,,0.00,VWS V14.01,2013-01-31 15:54:00,
2013-01-31 07:59:00,37.1,35.5,30.30,ENE,73,1.9,5.7,94,0.00,,,0.00,VWS V14.01,2013-01-31 15:59:00,
2013-01-31 08:04:00,37.8,36.0,30.30,ESE,109,1.9,3.8,93,0.00,,,0.00,VWS V14.01,2013-01-31 16:04:00,
2013-01-31 08:09:00,38.5,36.4,30.31,ESE,112,0.0,3.8,92,0.00,,,0.00,VWS V14.01,2013-01-31 16:09:00,
2013-01-31 08:14:00,39.3,36.9,30.31,ESE,111,0.0,3.8,91,0.00,,,0.00,VWS V14.01,2013-01-31 16:14:00,
2013-01-31 08:19:00,39.7,37.0,30.31,ESE,111,0.0,3.8,90,0.00,,,0.00,VWS V14.01,2013-01-31 16:19:00,
2013-01-31 08:24:00,40.1,37.1,30.31,ESE,111,0.0,3.8,89,0.00,,,0.00,VWS V14.01,2013-01-31 16:24:00,
2013-01-31 08:29:00,40.9,37.9,30.31,ESE,112,0.0,3.8,89,0.00,,,0.00,VWS V14.01,2013-01-31 16:29:00,
2013-01-31 08:34:00,41.7,38.1,30.31,ESE,113,0.0,1.9,87,0.00,,,0.00,VWS V14.01,2013-01-31 16:34:00,
2013-01-31 08:40:00,42.7,39.1,30.31,ESE,113,0.0,1.9,87,0.00,,,0.00,VWS V14.01,2013-01-31 16:40:00,
2013-01-31 08:45:00,43.8,39.6,30.31,ESE,113,0.0,1.9,85,0.00,,,0.00,VWS V14.01,2013-01-31 16:45:00,
2013-01-31 08:50:00,43.8,39.3,30.31,ESE,113,0.0,1.9,84,0.00,,,0.00,VWS V14.01,2013-01-31 16:50:00,
2013-01-31 08:55:00,43.9,39.7,30.31,SE,136,0.0,1.9,85,0.00,,,0.00,VWS V14.01,2013-01-31 16:55:00,
2013-01-31 09:00:00,44.7,40.2,30.31,SE,136,0.0,1.9,84,0.00,,,0.00,VWS V14.01,2013-01-31 17:00:00,
2013-01-31 09:05:00,45.6,40.4,30.31,SW,233,0.0,1.9,82,0.00,,CLR,0.00,VWS V14.01,2013-01-31 17:05:00,
2013-01-31 09:10:00,45.5,40.3,30.31,West,273,0.0,1.9,82,0.00,,CLR,0.00,VWS V14.01,2013-01-31 17:10:00,
2013-01-31 09:15:00,45.3,40.1,30.31,West,263,0.0,3.8,82,0.00,,CLR,0.00,VWS V14.01,2013-01-31 17:15:00,
2013-01-31 09:20:00,45.8,40.6,30.31,NW,323,0.0,3.8,82,0.00,,CLR,0.00,VWS V14.01,2013-01-31 17:20:00,
2013-01-31 09:25:00,46.3,40.8,30.31,West,279,1.9,3.8,81,0.00,,CLR,0.00,VWS V14.01,2013-01-31 17:25:00,
2013-01-31 09:30:00,46.8,41.3,30.31,West,267,1.9,1.9,81,0.00,,CLR,0.00,VWS V14.01,2013-01-31 17:30:00,
2013-01-31 09:35:00,47.2,41.4,30.31,WNW,288,0.0,3.8,80,0.00,,CLR,0.00,VWS V14.01,2013-01-31 17:35:00,
2013-01-31 09:40:00,47.7,41.8,30.31,WSW,241,0.0,3.8,80,0.00,,CLR,0.00,VWS V14.01,2013-01-31 17:40:00,
2013-01-31 09:45:00,48.4,42.2,30.30,SSW,195,0.0,3.8,79,0.00,,CLR,0.00,VWS V14.01,2013-01-31 17:45:00,
2013-01-31 09:50:00,49.1,41.9,30.31,West,272,0.0,3.8,76,0.00,,CLR,0.00,VWS V14.01,2013-01-31 17:50:00,
2013-01-31 09:55:00,49.2,42.0,30.30,SW,215,0.0,5.7,76,0.00,,CLR,0.00,VWS V14.01,2013-01-31 17:55:00,
2013-01-31 10:00:00,49.7,42.5,30.30,SW,219,1.9,1.9,76,0.00,,CLR,0.00,VWS V14.01,2013-01-31 18:00:00,
2013-01-31 10:05:00,50.3,42.7,30.30,SSW,201,1.9,5.7,75,0.00,,CLR,0.00,VWS V14.01,2013-01-31 18:05:00,
2013-01-31 10:10:00,50.5,42.9,30.30,WSW,250,0.0,5.7,75,0.00,,CLR,0.00,VWS V14.01,2013-01-31 18:10:00,
2013-01-31 10:15:00,50.8,42.8,30.30,SSW,200,0.0,5.7,74,0.00,,CLR,0.00,VWS V14.01,2013-01-31 18:15:00,
2013-01-31 10:20:00,51.1,43.1,30.30,SW,214,0.0,5.7,74,0.00,,CLR,0.00,VWS V14.01,2013-01-31 18:20:00,
2013-01-31 10:25:00,51.6,42.9,30.30,West,278,0.0,5.7,72,0.00,,CLR,0.00,VWS V14.01,2013-01-31 18:25:00,
2013-01-31 10:30:00,52.1,43.7,30.29,SSW,211,0.0,1.9,73,0.00,,CLR,0.00,VWS V14.01,2013-01-31 18:30:00,
2013-01-31 10:35:00,52.8,44.0,30.29,SW,232,0.0,1.9,72,0.00,,CLR,0.00,VWS V14.01,2013-01-31 18:35:00,
2013-01-31 10:41:00,53.4,43.9,30.29,West,262,1.9,3.8,70,0.00,,CLR,0.00,VWS V14.01,2013-01-31 18:41:00,
2013-01-31 10:46:00,53.9,44.0,30.29,West,266,1.9,3.8,69,0.00,,CLR,0.00,VWS V14.01,2013-01-31 18:46:00,
2013-01-31 10:51:00,54.3,44.0,30.28,WSW,252,1.9,3.8,68,0.00,,CLR,0.00,VWS V14.01,2013-01-31 18:51:00,
2013-01-31 10:56:00,54.8,43.7,30.29,West,277,3.8,3.8,66,0.00,,CLR,0.00,VWS V14.01,2013-01-31 18:56:00,
2013-01-31 11:01:00,55.3,44.2,30.28,SW,236,1.9,1.9,66,0.00,,CLR,0.00,VWS V14.01,2013-01-31 19:01:00,
2013-01-31 11:06:00,55.9,43.9,30.28,SSW,194,3.8,5.7,64,0.00,,FEW250,0.00,VWS V14.01,2013-01-31 19:06:00,
2013-01-31 11:11:00,56.3,44.7,30.28,SSW,210,1.9,5.7,65,0.00,,FEW250,0.00,VWS V14.01,2013-01-31 19:11:00,
2013-01-31 11:16:00,57.1,45.0,30.28,SSW,210,1.9,5.7,64,0.00,,FEW250,0.00,VWS V14.01,2013-01-31 19:16:00,
2013-01-31 11:21:00,57.4,44.5,30.28,SSW,198,1.9,5.7,62,0.00,,FEW250,0.00,VWS V14.01,2013-01-31 19:21:00,
2013-01-31 11:26:00,57.6,44.7,30.27,West,259,1.9,5.7,62,0.00,,FEW250,0.00,VWS V14.01,2013-01-31 19:26:00,
2013-01-31 11:31:00,58.1,44.7,30.27,SSW,203,1.9,1.9,61,0.00,,FEW250,0.00,VWS V14.01,2013-01-31 19:31:00,
2013-01-31 11:36:00,58.3,44.5,30.27,West,272,1.9,5.7,60,0.00,,FEW250,0.00,VWS V14.01,2013-01-31 19:36:00,
2013-01-31 11:41:00,58.5,45.1,30.27,SW,236,1.9,7.6,61,0.00,,FEW250,0.00,VWS V14.01,2013-01-31 19:41:00,
2013-01-31 11:46:00,58.8,45.0,30.26,SSW,203,5.7,7.6,60,0.00,,FEW250,0.00,VWS V14.01,2013-01-31 19:46:00,
2013-01-31 11:51:00,59.1,45.2,30.26,SW,216,1.9,7.6,60,0.00,,FEW250,0.00,VWS V14.01,2013-01-31 19:51:00,
2013-01-31 11:56:00,59.6,45.3,30.26,SSW,193,0.0,7.6,59,0.00,,FEW250,0.00,VWS V14.01,2013-01-31 19:56:00,
2013-01-31 12:01:00,60.2,45.8,30.26,SW,235,0.0,5.7,59,0.00,,FEW250,0.00,VWS V14.01,2013-01-31 20:01:00,
2013-01-31 12:06:00,60.6,45.8,30.26,West,270,1.9,5.7,58,0.00,,CLR,0.00,VWS V14.01,2013-01-31 20:06:00,
2013-01-31 12:11:00,60.6,46.2,30.25,WNW,283,1.9,5.7,59,0.00,,CLR,0.00,VWS V14.01,2013-01-31 20:11:00,
2013-01-31 12:16:00,60.9,46.0,30.25,WNW,288,3.8,7.6,58,0.00,,CLR,0.00,VWS V14.01,2013-01-31 20:16:00,
2013-01-31 12:21:00,60.6,46.2,30.25,West,267,1.9,7.6,59,0.00,,CLR,0.00,VWS V14.01,2013-01-31 20:21:00,
2013-01-31 12:26:00,61.1,47.1,30.25,WSW,245,1.9,7.6,60,0.00,,CLR,0.00,VWS V14.01,2013-01-31 20:26:00,
2013-01-31 12:31:00,61.3,46.4,30.25,SW,217,1.9,5.7,58,0.00,,CLR,0.00,VWS V14.01,2013-01-31 20:31:00,
2013-01-31 12:36:00,62.1,46.7,30.25,West,259,3.8,5.7,57,0.00,,CLR,0.00,VWS V14.01,2013-01-31 20:36:00,
2013-01-31 12:41:00,62.5,47.1,30.25,West,269,3.8,5.7,57,0.00,,CLR,0.00,VWS V14.01,2013-01-31 20:41:00,
2013-01-31 12:46:00,62.4,46.0,30.24,West,278,3.8,7.6,55,0.00,,CLR,0.00,VWS V14.01,2013-01-31 20:46:00,
2013-01-31 12:51:00,62.3,46.4,30.24,West,276,0.0,7.6,56,0.00,,CLR,0.00,VWS V14.01,2013-01-31 20:51:00,
2013-01-31 12:56:00,62.5,46.6,30.24,SSW,203,3.8,7.6,56,0.00,,CLR,0.00,VWS V14.01,2013-01-31 20:56:00,
2013-01-31 13:01:00,62.9,46.0,30.24,South,187,3.8,7.6,54,0.00,,CLR,0.00,VWS V14.01,2013-01-31 21:01:00,
2013-01-31 13:07:00,63.1,46.2,30.23,SW,225,1.9,9.5,54,0.00,,CLR,0.00,VWS V14.01,2013-01-31 21:07:00,
2013-01-31 13:12:00,63.4,46.0,30.23,WNW,297,5.7,9.5,53,0.00,,CLR,0.00,VWS V14.01,2013-01-31 21:12:00,
2013-01-31 13:17:00,63.6,46.7,30.23,WSW,252,1.9,9.5,54,0.00,,CLR,0.00,VWS V14.01,2013-01-31 21:17:00,
2013-01-31 13:22:00,63.5,46.1,30.22,WSW,255,1.9,9.5,53,0.00,,CLR,0.00,VWS V14.01,2013-01-31 21:22:00,
2013-01-31 13:27:00,63.7,46.3,30.22,South,172,1.9,9.5,53,0.00,,CLR,0.00,VWS V14.01,2013-01-31 21:27:00,
2013-01-31 13:32:00,64.1,47.1,30.22,WSW,255,1.9,7.6,54,0.00,,CLR,0.00,VWS V14.01,2013-01-31 21:32:00,
2013-01-31 13:37:00,64.7,46.7,30.22,West,264,1.9,7.6,52,0.00,,CLR,0.00,VWS V14.01,2013-01-31 21:37:00,
2013-01-31 13:42:00,65.1,47.1,30.22,SSW,201,1.9,7.6,52,0.00,,CLR,0.00,VWS V14.01,2013-01-31 21:42:00,
2013-01-31 13:47:00,65.1,47.1,30.22,SSW,198,5.7,7.6,52,0.00,,CLR,0.00,VWS V14.01,2013-01-31 21:47:00,
2013-01-31 13:52:00,65.3,46.7,30.21,SW,219,1.9,7.6,51,0.00,,CLR,0.00,VWS V14.01,2013-01-31 21:52:00,
2013-01-31 13:57:00,65.4,46.3,30.21,SSW,195,1.9,9.5,50,0.00,,CLR,0.00,VWS V14.01,2013-01-31 21:57:00,
2013-01-31 14:02:00,65.9,46.8,30.21,SSW,201,1.9,5.7,50,0.00,,CLR,0.00,VWS V14.01,2013-01-31 22:02:00,
2013-01-31 14:07:00,66.2,47.0,30.21,SW,217,3.8,7.6,50,0.00,,CLR,0.00,VWS V14.01,2013-01-31 22:07:00,
2013-01-31 14:12:00,66.4,46.7,30.21,SSW,199,3.8,7.6,49,0.00,,CLR,0.00,VWS V14.01,2013-01-31 22:12:00,
2013-01-31 14:17:00,66.5,46.8,30.21,SSW,209,0.0,7.6,49,0.00,,CLR,0.00,VWS V14.01,2013-01-31 22:17:00,
2013-01-31 14:22:00,66.8,47.0,30.20,South,186,0.0,7.6,49,0.00,,CLR,0.00,VWS V14.01,2013-01-31 22:22:00,
2013-01-31 14:27:00,66.9,48.2,30.20,SSW,197,0.0,7.6,51,0.00,,CLR,0.00,VWS V14.01,2013-01-31 22:27:00,
2013-01-31 14:32:00,67.0,47.8,30.20,South,191,5.7,5.7,50,0.00,,CLR,0.00,VWS V14.01,2013-01-31 22:32:00,
2013-01-31 14:37:00,67.0,48.3,30.20,SW,217,1.9,7.6,51,0.00,,CLR,0.00,VWS V14.01,2013-01-31 22:37:00,
2013-01-31 14:42:00,67.0,48.3,30.20,SSW,205,3.8,7.6,51,0.00,,CLR,0.00,VWS V14.01,2013-01-31 22:42:00,
2013-01-31 14:47:00,67.2,49.5,30.20,SSW,203,1.9,7.6,53,0.00,,CLR,0.00,VWS V14.01,2013-01-31 22:47:00,
2013-01-31 14:52:00,67.1,48.9,30.20,West,259,1.9,7.6,52,0.00,,CLR,0.00,VWS V14.01,2013-01-31 22:52:00,
2013-01-31 14:57:00,67.1,48.4,30.19,SW,221,3.8,7.6,51,0.00,,CLR,0.00,VWS V14.01,2013-01-31 22:57:00,
2013-01-31 15:02:00,66.9,48.2,30.19,WNW,285,5.7,5.7,51,0.00,,CLR,0.00,VWS V14.01,2013-01-31 23:02:00,
2013-01-31 15:07:00,66.6,48.4,30.19,SSW,212,0.0,7.6,52,0.00,,CLR,0.00,VWS V14.01,2013-01-31 23:07:00,
2013-01-31 15:12:00,66.2,48.6,30.19,SW,225,1.9,7.6,53,0.00,,CLR,0.00,VWS V14.01,2013-01-31 23:12:00,
2013-01-31 15:18:00,66.0,48.4,30.19,SW,223,1.9,7.6,53,0.00,,CLR,0.00,VWS V14.01,2013-01-31 23:18:00,
2013-01-31 15:23:00,65.9,48.3,30.19,West,266,0.0,7.6,53,0.00,,CLR,0.00,VWS V14.01,2013-01-31 23:23:00,
2013-01-31 15:28:00,65.9,48.3,30.19,SW,217,1.9,11.4,53,0.00,,CLR,0.00,VWS V14.01,2013-01-31 23:28:00,
2013-01-31 15:33:00,65.6,47.5,30.19,SSW,212,5.7,7.6,52,0.00,,CLR,0.00,VWS V14.01,2013-01-31 23:33:00,
2013-01-31 15:38:00,65.5,47.9,30.19,SW,235,1.9,7.6,53,0.00,,CLR,0.00,VWS V14.01,2013-01-31 23:38:00,
2013-01-31 15:43:00,65.4,47.3,30.19,SSW,207,1.9,11.4,52,0.00,,CLR,0.00,VWS V14.01,2013-01-31 23:43:00,
2013-01-31 15:48:00,65.1,47.6,30.19,SW,228,5.7,11.4,53,0.00,,CLR,0.00,VWS V14.01,2013-01-31 23:48:00,
2013-01-31 15:53:00,65.0,48.0,30.19,SSW,198,1.9,11.4,54,0.00,,CLR,0.00,VWS V14.01,2013-01-31 23:53:00,
2013-01-31 15:58:00,64.9,47.4,30.18,SW,214,3.8,11.4,53,0.00,,CLR,0.00,VWS V14.01,2013-01-31 23:58:00,
2013-01-31 16:03:00,64.8,48.3,30.18,South,190,3.8,3.8,55,0.00,,CLR,0.00,VWS V14.01,2013-02-01 00:03:00,
2013-01-31 16:08:00,64.6,48.1,30.18,SSW,205,3.8,9.5,55,0.00,,CLR,0.00,VWS V14.01,2013-02-01 00:08:00,
2013-01-31 16:13:00,64.3,47.8,30.18,SSW,208,5.7,9.5,55,0.00,,CLR,0.00,VWS V14.01,2013-02-01 00:13:00,
2013-01-31 16:18:00,64.3,47.8,30.18,SSW,200,1.9,9.5,55,0.00,,CLR,0.00,VWS V14.01,2013-02-01 00:18:00,
2013-01-31 16:23:00,64.1,48.1,30.18,SSW,205,3.8,9.5,56,0.00,,CLR,0.00,VWS V14.01,2013-02-01 00:23:00,
2013-01-31 16:28:00,63.9,48.4,30.19,SW,217,3.8,9.5,57,0.00,,CLR,0.00,VWS V14.01,2013-02-01 00:28:00,
2013-01-31 16:33:00,63.7,48.2,30.19,SW,231,0.0,5.7,57,0.00,,CLR,0.00,VWS V14.01,2013-02-01 00:33:00,
2013-01-31 16:38:00,63.5,48.5,30.18,WSW,240,1.9,7.6,58,0.00,,CLR,0.00,VWS V14.01,2013-02-01 00:38:00,
2013-01-31 16:43:00,63.4,48.4,30.18,WSW,239,3.8,7.6,58,0.00,,CLR,0.00,VWS V14.01,2013-02-01 00:43:00,
2013-01-31 16:48:00,63.1,48.1,30.18,SW,221,0.0,7.6,58,0.00,,CLR,0.00,VWS V14.01,2013-02-01 00:48:00,
2013-01-31 16:53:00,62.8,48.3,30.18,SW,222,3.8,7.6,59,0.00,,CLR,0.00,VWS V14.01,2013-02-01 00:53:00,
2013-01-31 16:58:00,62.5,47.5,30.18,SW,225,1.9,7.6,58,0.00,,CLR,0.00,VWS V14.01,2013-02-01 00:58:00,
2013-01-31 17:03:00,62.5,47.5,30.18,SSW,212,3.8,5.7,58,0.00,,CLR,0.00,VWS V14.01,2013-02-01 01:03:00,
2013-01-31 17:08:00,62.3,47.3,30.18,SW,214,0.0,5.7,58,0.00,,CLR,0.00,VWS V14.01,2013-02-01 01:08:00,
2013-01-31 17:14:00,61.9,47.4,30.19,SSW,212,0.0,5.7,59,0.00,,CLR,0.00,VWS V14.01,2013-02-01 01:14:00,
2013-01-31 17:19:00,61.4,47.4,30.18,SSW,210,0.0,7.6,60,0.00,,CLR,0.00,VWS V14.01,2013-02-01 01:19:00,
2013-01-31 17:24:00,61.1,48.0,30.19,ESE,113,1.9,7.6,62,0.00,,CLR,0.00,VWS V14.01,2013-02-01 01:24:00,
2013-01-31 17:29:00,60.6,48.0,30.18,ESE,120,1.9,7.6,63,0.00,,CLR,0.00,VWS V14.01,2013-02-01 01:29:00,
2013-01-31 17:34:00,60.1,47.9,30.19,ESE,106,1.9,3.8,64,0.00,,CLR,0.00,VWS V14.01,2013-02-01 01:34:00,
2013-01-31 17:39:00,59.8,47.6,30.19,ESE,113,0.0,3.8,64,0.00,,CLR,0.00,VWS V14.01,2013-02-01 01:39:00,
2013-01-31 17:44:00,59.2,47.9,30.19,ESE,113,0.0,3.8,66,0.00,,CLR,0.00,VWS V14.01,2013-02-01 01:44:00,
2013-01-31 17:49:00,58.6,47.3,30.19,ESE,113,0.0,3.8,66,0.00,,CLR,0.00,VWS V14.01,2013-02-01 01:49:00,
2013-01-31 17:54:00,57.9,47.4,30.19,ESE,113,0.0,3.8,68,0.00,,CLR,0.00,VWS V14.01,2013-02-01 01:54:00,
2013-01-31 17:59:00,57.1,47.4,30.19,ESE,113,0.0,3.8,70,0.00,,CLR,0.00,VWS V14.01,2013-02-01 01:59:00,
2013-01-31 18:04:00,56.5,47.2,30.19,ESE,113,0.0,0.0,71,0.00,,CLR,0.00,VWS V14.01,2013-02-01 02:04:00,
2013-01-31 18:09:00,55.8,47.3,30.19,ESE,113,0.0,0.0,73,0.00,,CLR,0.00,VWS V14.01,2013-02-01 02:09:00,
2013-01-31 18:14:00,55.3,47.2,30.19,West,270,0.0,1.9,74,0.00,,CLR,0.00,VWS V14.01,2013-02-01 02:14:00,
2013-01-31 18:19:00,54.8,46.7,30.19,West,270,0.0,1.9,74,0.00,,CLR,0.00,VWS V14.01,2013-02-01 02:19:00,
2013-01-31 18:24:00,54.3,46.2,30.19,West,270,0.0,1.9,74,0.00,,CLR,0.00,VWS V14.01,2013-02-01 02:24:00,
2013-01-31 18:29:00,53.9,46.9,30.19,West,270,0.0,1.9,77,0.00,,CLR,0.00,VWS V14.01,2013-02-01 02:29:00,
2013-01-31 18:34:00,53.4,46.4,30.19,West,270,0.0,0.0,77,0.00,,CLR,0.00,VWS V14.01,2013-02-01 02:34:00,
2013-01-31 18:39:00,52.9,46.2,30.19,West,270,0.0,0.0,78,0.00,,CLR,0.00,VWS V14.01,2013-02-01 02:39:00,
2013-01-31 18:44:00,52.4,46.1,30.19,West,270,0.0,0.0,79,0.00,,CLR,0.00,VWS V14.01,2013-02-01 02:44:00,
2013-01-31 18:49:00,51.8,45.8,30.19,West,270,0.0,0.0,80,0.00,,CLR,0.00,VWS V14.01,2013-02-01 02:49:00,
2013-01-31 18:54:00,51.7,46.1,30.19,West,270,0.0,0.0,81,0.00,,CLR,0.00,VWS V14.01,2013-02-01 02:54:00,
2013-01-31 18:59:00,51.6,46.0,30.20,West,271,0.0,0.0,81,0.00,,CLR,0.00,VWS V14.01,2013-02-01 02:59:00,
2013-01-31 19:04:00,51.9,46.3,30.19,ESE,115,0.0,1.9,81,0.00,,FEW200,0.00,VWS V14.01,2013-02-01 03:04:00,
2013-01-31 19:09:00,51.9,45.9,30.20,East,80,1.9,3.8,80,0.00,,FEW200,0.00,VWS V14.01,2013-02-01 03:09:00,
2013-01-31 19:14:00,51.9,45.9,30.20,ESE,104,0.0,5.7,80,0.00,,FEW200,0.00,VWS V14.01,2013-02-01 03:14:00,
2013-01-31 19:20:00,51.7,45.7,30.20,East,82,1.9,5.7,80,0.00,,FEW200,0.00,VWS V14.01,2013-02-01 03:20:00,
2013-01-31 19:25:00,51.6,45.6,30.20,NNE,27,1.9,5.7,80,0.00,,FEW200,0.00,VWS V14.01,2013-02-01 03:25:00,
2013-01-31 19:30:00,51.4,45.5,30.20,East,91,0.0,5.7,80,0.00,,FEW200,0.00,VWS V14.01,2013-02-01 03:30:00,
2013-01-31 19:35:00,51.2,45.2,30.20,ESE,102,1.9,3.8,80,0.00,,FEW200,0.00,VWS V14.01,2013-02-01 03:35:00,
2013-01-31 19:40:00,51.0,45.4,30.20,NE,54,0.0,3.8,81,0.00,,FEW200,0.00,VWS V14.01,2013-02-01 03:40:00,
2013-01-31 19:45:00,50.9,45.3,30.20,NE,53,0.0,3.8,81,0.00,,FEW200,0.00,VWS V14.01,2013-02-01 03:45:00,
2013-01-31 19:50:00,50.7,45.4,30.20,ENE,57,0.0,3.8,82,0.00,,FEW200,0.00,VWS V14.01,2013-02-01 03:50:00,
2013-01-31 19:55:00,50.3,45.0,30.20,ESE,108,1.9,3.8,82,0.00,,FEW200,0.00,VWS V14.01,2013-02-01 03:55:00,
2013-01-31 20:00:00,50.1,45.2,30.20,SE,127,0.0,0.0,83,0.00,,FEW200,0.00,VWS V14.01,2013-02-01 04:00:00,
2013-01-31 20:05:00,49.7,44.8,30.20,SE,124,1.9,3.8,83,0.00,,CLR,0.00,VWS V14.01,2013-02-01 04:05:00,
2013-01-31 20:10:00,49.5,44.9,30.20,SE,124,0.0,3.8,84,0.00,,CLR,0.00,VWS V14.01,2013-02-01 04:10:00,
2013-01-31 20:15:00,49.1,44.5,30.20,SE,124,0.0,3.8,84,0.00,,CLR,0.00,VWS V14.01,2013-02-01 04:15:00,
2013-01-31 20:20:00,49.0,44.7,30.20,ESE,122,0.0,3.8,85,0.00,,CLR,0.00,VWS V14.01,2013-02-01 04:20:00,
2013-01-31 20:25:00,48.8,44.5,30.20,SE,125,1.9,3.8,85,0.00,,CLR,0.00,VWS V14.01,2013-02-01 04:25:00,
2013-01-31 20:30:00,48.7,44.4,30.20,ESE,115,0.0,1.9,85,0.00,,CLR,0.00,VWS V14.01,2013-02-01 04:30:00,
2013-01-31 20:35:00,48.4,44.1,30.20,ESE,117,1.9,3.8,85,0.00,,CLR,0.00,VWS V14.01,2013-02-01 04:35:00,
2013-01-31 20:40:00,48.0,43.4,30.20,ESE,122,0.0,3.8,84,0.00,,CLR,0.00,VWS V14.01,2013-02-01 04:40:00,
2013-01-31 20:45:00,47.6,43.3,30.20,ESE,117,0.0,3.8,85,0.00,,CLR,0.00,VWS V14.01,2013-02-01 04:45:00,
2013-01-31 20:50:00,47.4,43.4,30.20,ESE,115,0.0,3.8,86,0.00,,CLR,0.00,VWS V14.01,2013-02-01 04:50:00,
2013-01-31 20:55:00,47.2,43.2,30.20,ESE,117,1.9,3.8,86,0.00,,CLR,0.00,VWS V14.01,2013-02-01 04:55:00,
2013-01-31 21:00:00,47.0,43.0,30.20,ESE,118,0.0,3.8,86,0.00,,CLR,0.00,VWS V14.01,2013-02-01 05:00:00,
2013-01-31 21:01:00,47.0,43.0,30.20,ESE,119,0.0,0.0,86,0.00,,CLR,0.00,VWS V14.01,2013-02-01 05:01:00,
2013-01-31 21:03:00,46.8,42.8,30.20,ESE,117,1.9,1.9,86,0.00,,CLR,0.00,VWS V14.01,2013-02-01 05:03:00,
2013-01-31 21:05:00,46.8,43.1,30.20,East,93,3.8,5.7,87,0.00,,CLR,0.00,VWS V14.01,2013-02-01 05:05:00,
2013-01-31 21:10:00,46.7,43.0,30.20,SE,131,1.9,5.7,87,0.00,,CLR,0.00,VWS V14.01,2013-02-01 05:10:00,
2013-01-31 21:15:00,46.5,42.8,30.20,ESE,118,1.9,5.7,87,0.00,,CLR,0.00,VWS V14.01,2013-02-01 05:15:00,
2013-01-31 21:20:00,46.2,42.5,30.20,East,98,0.0,5.7,87,0.00,,CLR,0.00,VWS V14.01,2013-02-01 05:20:00,
2013-01-31 21:25:00,46.0,42.3,30.20,ESE,114,1.9,5.7,87,0.00,,CLR,0.00,VWS V14.01,2013-02-01 05:25:00,
2013-01-31 21:30:00,45.8,42.5,30.20,SE,124,0.0,0.0,88,0.00,,CLR,0.00,VWS V14.01,2013-02-01 05:30:00,
2013-01-31 21:35:00,45.7,42.4,30.20,ESE,121,0.0,1.9,88,0.00,,CLR,0.00,VWS V14.01,2013-02-01 05:35:00,
2013-01-31 21:40:00,45.7,42.7,30.20,East,88,0.0,1.9,89,0.00,,CLR,0.00,VWS V14.01,2013-02-01 05:40:00,
2013-01-31 21:45:00,45.6,42.5,30.20,ESE,117,0.0,1.9,89,0.00,,CLR,0.00,VWS V14.01,2013-02-01 05:45:00,
2013-01-31 21:50:00,45.4,42.1,30.20,ESE,117,0.0,1.9,88,0.00,,CLR,0.00,VWS V14.01,2013-02-01 05:50:00,
2013-01-31 21:55:00,45.2,42.2,30.20,ESE,122,0.0,3.8,89,0.00,,CLR,0.00,VWS V14.01,2013-02-01 05:55:00,
2013-01-31 22:00:00,44.9,41.9,30.20,ESE,121,0.0,1.9,89,0.00,,CLR,0.00,VWS V14.01,2013-02-01 06:00:00,
2013-01-31 22:05:00,44.7,41.7,30.20,ESE,107,0.0,1.9,89,0.00,,CLR,0.00,VWS V14.01,2013-02-01 06:05:00,
2013-01-31 22:10:00,44.5,41.5,30.20,ESE,110,1.9,1.9,89,0.00,,CLR,0.00,VWS V14.01,2013-02-01 06:10:00,
2013-01-31 22:15:00,44.3,41.3,30.20,ESE,110,0.0,1.9,89,0.00,,CLR,0.00,VWS V14.01,2013-02-01 06:15:00,
2013-01-31 22:20:00,44.1,41.1,30.20,ESE,110,0.0,1.9,89,0.00,,CLR,0.00,VWS V14.01,2013-02-01 06:20:00,
2013-01-31 22:26:00,43.9,41.2,30.20,ESE,110,0.0,1.9,90,0.00,,CLR,0.00,VWS V14.01,2013-02-01 06:26:00,
2013-01-31 22:31:00,43.9,41.2,30.20,ESE,110,0.0,1.9,90,0.00,,CLR,0.00,VWS V14.01,2013-02-01 06:31:00,
2013-01-31 22:36:00,44.0,41.5,30.20,East,99,0.0,1.9,91,0.00,,CLR,0.00,VWS V14.01,2013-02-01 06:36:00,
2013-01-31 22:41:00,44.0,41.5,30.20,ESE,122,0.0,1.9,91,0.00,,CLR,0.00,VWS V14.01,2013-02-01 06:41:00,
2013-01-31 22:46:00,44.1,41.7,30.20,ESE,120,0.0,1.9,91,0.00,,CLR,0.00,VWS V14.01,2013-02-01 06:46:00,
2013-01-31 22:51:00,44.1,41.7,30.20,ESE,115,0.0,1.9,91,0.00,,CLR,0.00,VWS V14.01,2013-02-01 06:51:00,
2013-01-31 22:56:00,44.0,41.3,30.20,ESE,117,0.0,1.9,90,0.00,,CLR,0.00,VWS V14.01,2013-02-01 06:56:00,
2013-01-31 23:01:00,43.7,41.0,30.20,ESE,117,0.0,1.9,90,0.00,,CLR,0.00,VWS V14.01,2013-02-01 07:01:00,
2013-01-31 23:06:00,43.5,40.8,30.20,ESE,117,0.0,1.9,90,0.00,,CLR,0.00,VWS V14.01,2013-02-01 07:06:00,
2013-01-31 23:11:00,43.3,40.8,30.20,ESE,117,0.0,1.9,91,0.00,,CLR,0.00,VWS V14.01,2013-02-01 07:11:00,
2013-01-31 23:16:00,43.2,40.8,30.20,ESE,105,1.9,3.8,91,0.00,,CLR,0.00,VWS V14.01,2013-02-01 07:16:00,
2013-01-31 23:21:00,43.3,41.1,30.20,ESE,115,0.0,3.8,92,0.00,,CLR,0.00,VWS V14.01,2013-02-01 07:21:00,
2013-01-31 23:26:00,43.2,40.8,30.20,ESE,115,1.9,3.8,91,0.00,,CLR,0.00,VWS V14.01,2013-02-01 07:26:00,
2013-01-31 23:30:00,43.1,40.7,30.21,ESE,103,1.9,3.8,91,0.00,,CLR,0.00,VWS V14.01,2013-02-01 07:30:00,
2013-01-31 23:31:00,43.1,40.7,30.20,ESE,117,3.8,3.8,91,0.00,,CLR,0.00,VWS V14.01,2013-02-01 07:31:00,
2013-01-31 23:36:00,42.9,40.5,30.21,ESE,119,1.9,3.8,91,0.00,,CLR,0.00,VWS V14.01,2013-02-01 07:36:00,
2013-01-31 23:41:00,42.8,40.4,30.20,ESE,117,0.0,3.8,91,0.00,,CLR,0.00,VWS V14.01,2013-02-01 07:41:00,
2013-01-31 23:46:00,42.5,40.1,30.20,ESE,121,1.9,3.8,91,0.00,,CLR,0.00,VWS V14.01,2013-02-01 07:46:00,
2013-01-31 23:51:00,42.3,39.9,30.20,ESE,115,0.0,3.8,91,0.00,,CLR,0.00,VWS V14.01,2013-02-01 07:51:00,
2013-01-31 23:56:00,42.2,39.8,30.20,East,99,0.0,3.8,91,0.00,,CLR,0.00,VWS V14.01,2013-02-01 07:56:00,